sensor_id;sensor_type;location;lat;lon;timestamp;pressure;altitude;pressure_sealevel;temperature;humidity
8069;BME280;4077;43.702;24.896;2023-08-17T00:02:16;99491.19;;;19.24;100.00
8069;BME280;4077;43.702;24.896;2023-08-17T00:04:41;99510.28;;;19.28;100.00
8069;BME280;4077;43.702;24.896;2023-08-17T00:07:07;99514.44;;;19.38;100.00
8069;BME280;4077;43.702;24.896;2023-08-17T00:09:32;99514.56;;;19.32;100.00
8069;BME280;4077;43.702;24.896;2023-08-17T00:11:58;99516.50;;;19.24;100.00
8069;BME280;4077;43.702;24.896;2023-08-17T00:14:23;99508.84;;;19.14;100.00
8069;BME280;4077;43.702;24.896;2023-08-17T00:16:49;99467.94;;;18.75;100.00
8069;BME280;4077;43.702;24.896;2023-08-17T00:19:15;99491.28;;;18.82;100.00
8069;BME280;4077;43.702;24.896;2023-08-17T00:21:44;99497.38;;;18.83;100.00
8069;BME280;4077;43.702;24.896;2023-08-17T00:24:10;99492.41;;;18.71;100.00
8069;BME280;4077;43.702;24.896;2023-08-17T00:26:35;99503.56;;;18.80;100.00
8069;BME280;4077;43.702;24.896;2023-08-17T00:29:02;99501.06;;;18.73;100.00
8069;BME280;4077;43.702;24.896;2023-08-17T00:31:28;99446.88;;;18.39;100.00
8069;BME280;4077;43.702;24.896;2023-08-17T00:33:53;99488.31;;;18.57;100.00
8069;BME280;4077;43.702;24.896;2023-08-17T00:36:21;99502.97;;;18.65;100.00
8069;BME280;4077;43.702;24.896;2023-08-17T00:38:47;99509.13;;;18.62;100.00
8069;BME280;4077;43.702;24.896;2023-08-17T00:41:12;99496.28;;;18.51;100.00
8069;BME280;4077;43.702;24.896;2023-08-17T00:43:38;99502.34;;;18.53;100.00
8069;BME280;4077;43.702;24.896;2023-08-17T00:46:03;99499.75;;;18.52;100.00
8069;BME280;4077;43.702;24.896;2023-08-17T00:48:30;99487.81;;;18.40;100.00
8069;BME280;4077;43.702;24.896;2023-08-17T00:50:57;99489.41;;;18.47;100.00
8069;BME280;4077;43.702;24.896;2023-08-17T00:53:26;99499.84;;;18.47;100.00
8069;BME280;4077;43.702;24.896;2023-08-17T00:55:53;99515.22;;;18.63;100.00
8069;BME280;4077;43.702;24.896;2023-08-17T00:58:20;99528.94;;;18.75;100.00
8069;BME280;4077;43.702;24.896;2023-08-17T01:00:46;99524.78;;;18.64;100.00
8069;BME280;4077;43.702;24.896;2023-08-17T01:03:12;99523.09;;;18.59;100.00
8069;BME280;4077;43.702;24.896;2023-08-17T01:05:37;99528.34;;;18.61;100.00
8069;BME280;4077;43.702;24.896;2023-08-17T01:08:03;99520.44;;;18.63;100.00
8069;BME280;4077;43.702;24.896;2023-08-17T01:14:01;99536.91;;;18.69;100.00
8069;BME280;4077;43.702;24.896;2023-08-17T01:16:32;99537.84;;;18.67;100.00
8069;BME280;4077;43.702;24.896;2023-08-17T01:19:00;99529.31;;;18.55;100.00
8069;BME280;4077;43.702;24.896;2023-08-17T01:21:44;99521.72;;;18.43;100.00
8069;BME280;4077;43.702;24.896;2023-08-17T01:24:14;99533.06;;;18.42;100.00
8069;BME280;4077;43.702;24.896;2023-08-17T01:26:40;99529.63;;;18.40;100.00
8069;BME280;4077;43.702;24.896;2023-08-17T01:29:05;99503.66;;;18.31;100.00
8069;BME280;4077;43.702;24.896;2023-08-17T01:34:24;99519.16;;;18.40;100.00
8069;BME280;4077;43.702;24.896;2023-08-17T01:36:53;99512.16;;;18.42;100.00
8069;BME280;4077;43.702;24.896;2023-08-17T01:39:24;99503.41;;;18.43;100.00
8069;BME280;4077;43.702;24.896;2023-08-17T01:41:52;99511.84;;;18.57;100.00
8069;BME280;4077;43.702;24.896;2023-08-17T01:44:20;99529.09;;;18.68;100.00
8069;BME280;4077;43.702;24.896;2023-08-17T01:46:48;99509.09;;;18.64;100.00
8069;BME280;4077;43.702;24.896;2023-08-17T01:49:13;99520.22;;;18.75;100.00
8069;BME280;4077;43.702;24.896;2023-08-17T01:51:39;99515.84;;;18.75;100.00
8069;BME280;4077;43.702;24.896;2023-08-17T01:54:05;99526.03;;;18.89;100.00
8069;BME280;4077;43.702;24.896;2023-08-17T01:56:31;99531.94;;;18.97;100.00
8069;BME280;4077;43.702;24.896;2023-08-17T01:58:56;99528.06;;;19.13;100.00
8069;BME280;4077;43.702;24.896;2023-08-17T02:01:21;99531.44;;;19.19;100.00
8069;BME280;4077;43.702;24.896;2023-08-17T02:03:47;99488.41;;;18.93;100.00
8069;BME280;4077;43.702;24.896;2023-08-17T02:06:12;99514.91;;;19.18;100.00
8069;BME280;4077;43.702;24.896;2023-08-17T02:08:38;99525.91;;;19.32;100.00
8069;BME280;4077;43.702;24.896;2023-08-17T02:11:04;99510.28;;;19.28;100.00
8069;BME280;4077;43.702;24.896;2023-08-17T02:13:30;99526.47;;;19.45;100.00
8069;BME280;4077;43.702;24.896;2023-08-17T02:15:55;99507.38;;;19.40;100.00
8069;BME280;4077;43.702;24.896;2023-08-17T02:18:21;99500.34;;;19.42;100.00
8069;BME280;4077;43.702;24.896;2023-08-17T02:20:46;99521.28;;;19.44;100.00
8069;BME280;4077;43.702;24.896;2023-08-17T02:23:12;99530.91;;;19.43;100.00
8069;BME280;4077;43.702;24.896;2023-08-17T02:25:38;99523.19;;;19.37;100.00
8069;BME280;4077;43.702;24.896;2023-08-17T02:28:04;99528.63;;;19.28;100.00
8069;BME280;4077;43.702;24.896;2023-08-17T02:30:29;99530.31;;;19.30;100.00
8069;BME280;4077;43.702;24.896;2023-08-17T02:32:55;99528.03;;;19.17;100.00
8069;BME280;4077;43.702;24.896;2023-08-17T02:35:21;99536.88;;;19.11;100.00
8069;BME280;4077;43.702;24.896;2023-08-17T02:37:46;99530.94;;;19.03;100.00
8069;BME280;4077;43.702;24.896;2023-08-17T02:40:11;99535.53;;;18.92;100.00
8069;BME280;4077;43.702;24.896;2023-08-17T02:42:37;99536.44;;;18.91;100.00
8069;BME280;4077;43.702;24.896;2023-08-17T02:45:05;99532.16;;;18.88;100.00
8069;BME280;4077;43.702;24.896;2023-08-17T02:47:31;99540.00;;;18.88;100.00
8069;BME280;4077;43.702;24.896;2023-08-17T02:49:56;99527.00;;;18.83;100.00
8069;BME280;4077;43.702;24.896;2023-08-17T02:52:22;99517.56;;;18.76;100.00
8069;BME280;4077;43.702;24.896;2023-08-17T02:54:47;99529.78;;;18.76;100.00
8069;BME280;4077;43.702;24.896;2023-08-17T02:57:13;99511.72;;;18.64;100.00
8069;BME280;4077;43.702;24.896;2023-08-17T02:59:38;99523.66;;;18.77;100.00
8069;BME280;4077;43.702;24.896;2023-08-17T03:02:04;99521.25;;;18.68;100.00
8069;BME280;4077;43.702;24.896;2023-08-17T03:04:29;99518.63;;;18.68;100.00
8069;BME280;4077;43.702;24.896;2023-08-17T03:06:55;99507.59;;;18.52;100.00
8069;BME280;4077;43.702;24.896;2023-08-17T03:09:20;99522.25;;;18.61;100.00
8069;BME280;4077;43.702;24.896;2023-08-17T03:11:46;99530.09;;;18.59;100.00
8069;BME280;4077;43.702;24.896;2023-08-17T03:14:12;99523.34;;;18.49;100.00
8069;BME280;4077;43.702;24.896;2023-08-17T03:16:37;99526.97;;;18.42;100.00
8069;BME280;4077;43.702;24.896;2023-08-17T03:19:05;99532.25;;;18.39;100.00
8069;BME280;4077;43.702;24.896;2023-08-17T03:21:33;99524.44;;;18.37;100.00
8069;BME280;4077;43.702;24.896;2023-08-17T03:23:59;99534.91;;;18.37;100.00
8069;BME280;4077;43.702;24.896;2023-08-17T03:26:24;99540.97;;;18.38;100.00
8069;BME280;4077;43.702;24.896;2023-08-17T03:28:50;99528.13;;;18.27;100.00
8069;BME280;4077;43.702;24.896;2023-08-17T03:31:15;99535.00;;;18.31;100.00
8069;BME280;4077;43.702;24.896;2023-08-17T03:33:40;99543.69;;;18.33;100.00
8069;BME280;4077;43.702;24.896;2023-08-17T03:36:06;99509.19;;;18.16;100.00
8069;BME280;4077;43.702;24.896;2023-08-17T03:38:32;99520.56;;;18.13;100.00
8069;BME280;4077;43.702;24.896;2023-08-17T03:40:58;99523.25;;;18.09;100.00
8069;BME280;4077;43.702;24.896;2023-08-17T03:43:24;99542.28;;;18.15;100.00
8069;BME280;4077;43.702;24.896;2023-08-17T03:45:51;99544.13;;;18.10;100.00
8069;BME280;4077;43.702;24.896;2023-08-17T03:48:16;99531.28;;;17.98;100.00
8069;BME280;4077;43.702;24.896;2023-08-17T03:50:42;99547.66;;;18.08;100.00
8069;BME280;4077;43.702;24.896;2023-08-17T03:53:07;99542.44;;;18.08;100.00
8069;BME280;4077;43.702;24.896;2023-08-17T03:55:33;99537.34;;;18.00;100.00
8069;BME280;4077;43.702;24.896;2023-08-17T03:57:58;99546.91;;;18.01;100.00
8069;BME280;4077;43.702;24.896;2023-08-17T04:00:24;99542.59;;;17.98;100.00
8069;BME280;4077;43.702;24.896;2023-08-17T04:02:49;99546.03;;;18.00;100.00
8069;BME280;4077;43.702;24.896;2023-08-17T04:05:15;99545.13;;;18.03;100.00
8069;BME280;4077;43.702;24.896;2023-08-17T04:07:40;99534.81;;;17.95;100.00
8069;BME280;4077;43.702;24.896;2023-08-17T04:10:06;99550.34;;;18.03;100.00
8069;BME280;4077;43.702;24.896;2023-08-17T04:12:32;99527.00;;;17.94;100.00
8069;BME280;4077;43.702;24.896;2023-08-17T04:14:57;99545.94;;;18.07;100.00
8069;BME280;4077;43.702;24.896;2023-08-17T04:17:23;99548.44;;;18.13;100.00
8069;BME280;4077;43.702;24.896;2023-08-17T04:19:48;99553.63;;;18.14;100.00
8069;BME280;4077;43.702;24.896;2023-08-17T04:22:14;99550.06;;;18.18;100.00
8069;BME280;4077;43.702;24.896;2023-08-17T04:24:39;99556.09;;;18.22;100.00
8069;BME280;4077;43.702;24.896;2023-08-17T04:27:05;99547.41;;;18.21;100.00
8069;BME280;4077;43.702;24.896;2023-08-17T04:29:31;99561.03;;;18.37;100.00
8069;BME280;4077;43.702;24.896;2023-08-17T04:31:57;99557.47;;;18.41;100.00
8069;BME280;4077;43.702;24.896;2023-08-17T04:34:24;99566.09;;;18.46;100.00
8069;BME280;4077;43.702;24.896;2023-08-17T04:36:50;99555.66;;;18.45;100.00
8069;BME280;4077;43.702;24.896;2023-08-17T04:39:15;99551.28;;;18.47;100.00
8069;BME280;4077;43.702;24.896;2023-08-17T04:41:41;99546.75;;;18.55;100.00
8069;BME280;4077;43.702;24.896;2023-08-17T04:44:07;99567.50;;;18.63;100.00
8069;BME280;4077;43.702;24.896;2023-08-17T04:46:34;99566.56;;;18.68;100.00
8069;BME280;4077;43.702;24.896;2023-08-17T04:49:01;99563.00;;;18.71;100.00
8069;BME280;4077;43.702;24.896;2023-08-17T04:51:27;99554.22;;;18.73;100.00
8069;BME280;4077;43.702;24.896;2023-08-17T04:53:52;99570.41;;;18.92;100.00
8069;BME280;4077;43.702;24.896;2023-08-17T04:56:18;99570.28;;;18.98;100.00
8069;BME280;4077;43.702;24.896;2023-08-17T04:58:43;99529.59;;;18.85;100.00
8069;BME280;4077;43.702;24.896;2023-08-17T05:01:09;99578.50;;;19.22;100.00
8069;BME280;4077;43.702;24.896;2023-08-17T05:03:35;99567.97;;;19.25;100.00
8069;BME280;4077;43.702;24.896;2023-08-17T05:06:01;99566.91;;;19.32;100.00
8069;BME280;4077;43.702;24.896;2023-08-17T05:08:26;99568.59;;;19.36;100.00
8069;BME280;4077;43.702;24.896;2023-08-17T05:10:52;99555.44;;;19.37;100.00
8069;BME280;4077;43.702;24.896;2023-08-17T05:13:18;99573.41;;;19.53;100.00
8069;BME280;4077;43.702;24.896;2023-08-17T05:15:44;99560.91;;;19.65;100.00
8069;BME280;4077;43.702;24.896;2023-08-17T05:18:10;99583.09;;;19.86;100.00
8069;BME280;4077;43.702;24.896;2023-08-17T05:20:35;99585.06;;;20.12;100.00
8069;BME280;4077;43.702;24.896;2023-08-17T05:23:01;99575.63;;;20.38;100.00
8069;BME280;4077;43.702;24.896;2023-08-17T05:25:26;99590.47;;;20.71;100.00
8069;BME280;4077;43.702;24.896;2023-08-17T05:27:52;99597.38;;;21.05;100.00
8069;BME280;4077;43.702;24.896;2023-08-17T05:30:17;99601.16;;;21.24;100.00
8069;BME280;4077;43.702;24.896;2023-08-17T05:32:43;99602.38;;;21.44;100.00
8069;BME280;4077;43.702;24.896;2023-08-17T05:35:09;99597.41;;;21.61;100.00
8069;BME280;4077;43.702;24.896;2023-08-17T05:37:34;99599.66;;;21.73;100.00
8069;BME280;4077;43.702;24.896;2023-08-17T05:40:00;99605.31;;;21.88;100.00
8069;BME280;4077;43.702;24.896;2023-08-17T05:42:25;99583.50;;;21.85;100.00
8069;BME280;4077;43.702;24.896;2023-08-17T05:44:51;99602.19;;;22.03;100.00
8069;BME280;4077;43.702;24.896;2023-08-17T05:47:16;99604.44;;;22.15;100.00
8069;BME280;4077;43.702;24.896;2023-08-17T05:49:44;99604.94;;;22.26;100.00
8069;BME280;4077;43.702;24.896;2023-08-17T05:52:09;99608.28;;;22.31;100.00
8069;BME280;4077;43.702;24.896;2023-08-17T05:54:35;99605.03;;;22.48;100.00
8069;BME280;4077;43.702;24.896;2023-08-17T05:57:01;99599.41;;;22.59;100.00
8069;BME280;4077;43.702;24.896;2023-08-17T05:59:27;99594.66;;;22.69;100.00
8069;BME280;4077;43.702;24.896;2023-08-17T06:01:52;99602.78;;;22.87;100.00
8069;BME280;4077;43.702;24.896;2023-08-17T06:04:18;99608.94;;;23.10;100.00
8069;BME280;4077;43.702;24.896;2023-08-17T06:06:43;99605.06;;;23.20;100.00
8069;BME280;4077;43.702;24.896;2023-08-17T06:09:09;99598.66;;;23.27;100.00
8069;BME280;4077;43.702;24.896;2023-08-17T06:11:34;99609.97;;;23.51;100.00
8069;BME280;4077;43.702;24.896;2023-08-17T06:14:00;99564.25;;;23.30;100.00
8069;BME280;4077;43.702;24.896;2023-08-17T06:16:25;99612.53;;;23.76;100.00
8069;BME280;4077;43.702;24.896;2023-08-17T06:18:51;99615.53;;;23.89;100.00
8069;BME280;4077;43.702;24.896;2023-08-17T06:21:16;99616.75;;;24.02;100.00
8069;BME280;4077;43.702;24.896;2023-08-17T06:23:42;99604.81;;;24.14;100.00
8069;BME280;4077;43.702;24.896;2023-08-17T06:26:07;99623.41;;;24.31;100.00
8069;BME280;4077;43.702;24.896;2023-08-17T06:28:33;99610.72;;;24.41;100.00
8069;BME280;4077;43.702;24.896;2023-08-17T06:30:58;99630.44;;;24.73;100.00
8069;BME280;4077;43.702;24.896;2023-08-17T06:33:24;99632.72;;;24.80;100.00
8069;BME280;4077;43.702;24.896;2023-08-17T06:35:50;99629.47;;;24.94;100.00
8069;BME280;4077;43.702;24.896;2023-08-17T06:38:16;99636.78;;;25.08;100.00
8069;BME280;4077;43.702;24.896;2023-08-17T06:40:41;99645.50;;;25.29;100.00
8069;BME280;4077;43.702;24.896;2023-08-17T06:43:07;99644.38;;;25.53;99.04
8069;BME280;4077;43.702;24.896;2023-08-17T06:45:33;99648.41;;;25.79;95.86
8069;BME280;4077;43.702;24.896;2023-08-17T06:47:58;99653.38;;;26.04;95.65
8069;BME280;4077;43.702;24.896;2023-08-17T06:50:25;99645.75;;;26.33;95.34
8069;BME280;4077;43.702;24.896;2023-08-17T06:52:51;99650.25;;;26.83;91.70
8069;BME280;4077;43.702;24.896;2023-08-17T06:55:17;99649.53;;;27.30;88.42
8069;BME280;4077;43.702;24.896;2023-08-17T06:57:43;99659.03;;;27.65;84.55
8069;BME280;4077;43.702;24.896;2023-08-17T07:00:10;99661.38;;;27.71;83.79
8069;BME280;4077;43.702;24.896;2023-08-17T07:02:37;99647.66;;;27.32;83.70
8069;BME280;4077;43.702;24.896;2023-08-17T07:05:03;99659.47;;;27.26;84.95
8069;BME280;4077;43.702;24.896;2023-08-17T07:07:29;99659.97;;;27.33;83.66
8069;BME280;4077;43.702;24.896;2023-08-17T07:09:57;99662.28;;;27.39;83.51
8069;BME280;4077;43.702;24.896;2023-08-17T07:12:23;99663.72;;;27.29;81.40
8069;BME280;4077;43.702;24.896;2023-08-17T07:14:53;99662.00;;;27.27;81.05
8069;BME280;4077;43.702;24.896;2023-08-17T07:17:19;99661.25;;;27.41;80.72
8069;BME280;4077;43.702;24.896;2023-08-17T07:19:44;99662.91;;;27.60;78.92
8069;BME280;4077;43.702;24.896;2023-08-17T07:22:10;99652.66;;;27.69;81.88
8069;BME280;4077;43.702;24.896;2023-08-17T07:24:35;99662.22;;;27.88;83.91
8069;BME280;4077;43.702;24.896;2023-08-17T07:27:01;99658.97;;;27.83;80.27
8069;BME280;4077;43.702;24.896;2023-08-17T07:29:26;99666.81;;;28.00;83.53
8069;BME280;4077;43.702;24.896;2023-08-17T07:31:52;99654.31;;;28.02;84.33
8069;BME280;4077;43.702;24.896;2023-08-17T07:34:20;99661.00;;;28.09;82.60
8069;BME280;4077;43.702;24.896;2023-08-17T07:36:45;99659.69;;;28.16;82.80
8069;BME280;4077;43.702;24.896;2023-08-17T07:39:11;99655.47;;;28.12;83.17
8069;BME280;4077;43.702;24.896;2023-08-17T07:41:36;99655.31;;;28.15;84.16
8069;BME280;4077;43.702;24.896;2023-08-17T07:44:02;99657.53;;;28.23;82.52
8069;BME280;4077;43.702;24.896;2023-08-17T07:46:27;99662.09;;;28.51;79.49
8069;BME280;4077;43.702;24.896;2023-08-17T07:48:53;99665.34;;;28.56;79.85
8069;BME280;4077;43.702;24.896;2023-08-17T07:51:18;99659.56;;;28.33;80.31
8069;BME280;4077;43.702;24.896;2023-08-17T07:53:44;99658.03;;;28.14;82.61
8069;BME280;4077;43.702;24.896;2023-08-17T07:56:09;99648.78;;;27.91;82.47
8069;BME280;4077;43.702;24.896;2023-08-17T07:58:35;99646.66;;;27.82;83.78
8069;BME280;4077;43.702;24.896;2023-08-17T08:01:00;99644.25;;;27.61;83.57
8069;BME280;4077;43.702;24.896;2023-08-17T08:03:26;99644.00;;;27.66;83.97
8069;BME280;4077;43.702;24.896;2023-08-17T08:05:52;99640.97;;;27.56;85.92
8069;BME280;4077;43.702;24.896;2023-08-17T08:08:17;99633.44;;;27.64;86.92
8069;BME280;4077;43.702;24.896;2023-08-17T08:10:43;99643.59;;;27.73;88.08
8069;BME280;4077;43.702;24.896;2023-08-17T08:13:09;99629.94;;;27.64;87.83
8069;BME280;4077;43.702;24.896;2023-08-17T08:15:34;99638.00;;;27.78;89.58
8069;BME280;4077;43.702;24.896;2023-08-17T08:18:00;99638.91;;;27.93;86.51
8069;BME280;4077;43.702;24.896;2023-08-17T08:20:25;99645.41;;;28.03;84.85
8069;BME280;4077;43.702;24.896;2023-08-17T08:22:52;99637.69;;;28.14;86.39
8069;BME280;4077;43.702;24.896;2023-08-17T08:25:17;99633.00;;;28.33;84.61
8069;BME280;4077;43.702;24.896;2023-08-17T08:27:43;99653.38;;;28.49;84.49
8069;BME280;4077;43.702;24.896;2023-08-17T08:30:10;99640.84;;;28.51;84.56
8069;BME280;4077;43.702;24.896;2023-08-17T08:32:36;99646.31;;;28.48;86.64
8069;BME280;4077;43.702;24.896;2023-08-17T08:35:02;99642.34;;;28.55;86.75
8069;BME280;4077;43.702;24.896;2023-08-17T08:37:28;99647.28;;;28.61;86.85
8069;BME280;4077;43.702;24.896;2023-08-17T08:39:56;99641.72;;;28.66;84.37
8069;BME280;4077;43.702;24.896;2023-08-17T08:42:23;99644.47;;;28.64;83.33
8069;BME280;4077;43.702;24.896;2023-08-17T08:44:51;99633.84;;;28.64;83.97
8069;BME280;4077;43.702;24.896;2023-08-17T08:47:17;99644.28;;;28.81;83.68
8069;BME280;4077;43.702;24.896;2023-08-17T08:49:50;99637.22;;;28.96;81.21
8069;BME280;4077;43.702;24.896;2023-08-17T08:52:23;99640.03;;;29.07;80.11
8069;BME280;4077;43.702;24.896;2023-08-17T08:54:50;99629.41;;;29.22;80.67
8069;BME280;4077;43.702;24.896;2023-08-17T08:57:18;99643.63;;;29.35;77.17
8069;BME280;4077;43.702;24.896;2023-08-17T08:59:45;99635.34;;;29.39;76.11
8069;BME280;4077;43.702;24.896;2023-08-17T09:02:14;99638.88;;;29.40;77.28
8069;BME280;4077;43.702;24.896;2023-08-17T09:04:45;99621.50;;;29.34;76.05
8069;BME280;4077;43.702;24.896;2023-08-17T09:07:12;99630.69;;;29.43;78.60
8069;BME280;4077;43.702;24.896;2023-08-17T09:09:38;99632.31;;;29.60;76.10
8069;BME280;4077;43.702;24.896;2023-08-17T09:12:24;99625.53;;;29.68;73.37
8069;BME280;4077;43.702;24.896;2023-08-17T09:14:50;99611.06;;;29.73;73.41
8069;BME280;4077;43.702;24.896;2023-08-17T09:17:25;99628.84;;;29.99;72.68
8069;BME280;4077;43.702;24.896;2023-08-17T09:19:52;99625.50;;;29.95;71.55
8069;BME280;4077;43.702;24.896;2023-08-17T09:22:24;99627.22;;;29.96;71.73
8069;BME280;4077;43.702;24.896;2023-08-17T09:24:54;99621.78;;;29.98;72.59
8069;BME280;4077;43.702;24.896;2023-08-17T09:27:20;99622.28;;;30.17;70.91
8069;BME280;4077;43.702;24.896;2023-08-17T09:29:45;99622.13;;;30.46;70.77
8069;BME280;4077;43.702;24.896;2023-08-17T09:32:13;99622.69;;;30.89;68.13
8069;BME280;4077;43.702;24.896;2023-08-17T09:34:42;99631.28;;;31.31;63.63
8069;BME280;4077;43.702;24.896;2023-08-17T09:37:08;99611.28;;;31.73;60.87
8069;BME280;4077;43.702;24.896;2023-08-17T09:39:33;99628.75;;;32.72;58.04
8069;BME280;4077;43.702;24.896;2023-08-17T09:42:03;99622.09;;;33.33;56.66
8069;BME280;4077;43.702;24.896;2023-08-17T09:44:28;99644.09;;;34.55;53.01
8069;BME280;4077;43.702;24.896;2023-08-17T09:46:57;99646.59;;;34.15;53.41
8069;BME280;4077;43.702;24.896;2023-08-17T09:49:24;99622.31;;;33.53;54.04
8069;BME280;4077;43.702;24.896;2023-08-17T09:51:50;99631.03;;;33.77;54.24
8069;BME280;4077;43.702;24.896;2023-08-17T09:54:24;99626.81;;;32.85;54.08
8069;BME280;4077;43.702;24.896;2023-08-17T09:56:53;99601.13;;;32.02;55.77
8069;BME280;4077;43.702;24.896;2023-08-17T09:59:19;99596.13;;;31.74;57.10
8069;BME280;4077;43.702;24.896;2023-08-17T10:01:48;99599.13;;;31.45;57.88
8069;BME280;4077;43.702;24.896;2023-08-17T10:04:15;99585.28;;;31.15;59.10
8069;BME280;4077;43.702;24.896;2023-08-17T10:06:42;99592.75;;;31.35;60.40
8069;BME280;4077;43.702;24.896;2023-08-17T10:09:11;99559.16;;;31.20;58.35
8069;BME280;4077;43.702;24.896;2023-08-17T10:11:39;99596.56;;;31.44;57.82
8069;BME280;4077;43.702;24.896;2023-08-17T10:14:18;99599.34;;;31.42;56.60
8069;BME280;4077;43.702;24.896;2023-08-17T10:16:50;99585.78;;;31.45;57.39
8069;BME280;4077;43.702;24.896;2023-08-17T10:19:55;99585.09;;;31.54;56.94
8069;BME280;4077;43.702;24.896;2023-08-17T10:24:52;99591.97;;;31.70;55.34
8069;BME280;4077;43.702;24.896;2023-08-17T10:27:22;99575.38;;;31.77;55.28
8069;BME280;4077;43.702;24.896;2023-08-17T10:29:50;99588.47;;;31.93;54.45
8069;BME280;4077;43.702;24.896;2023-08-17T10:32:16;99589.72;;;32.11;54.18
8069;BME280;4077;43.702;24.896;2023-08-17T10:34:42;99606.03;;;32.31;52.63
8069;BME280;4077;43.702;24.896;2023-08-17T10:37:08;99577.16;;;31.90;51.51
8069;BME280;4077;43.702;24.896;2023-08-17T10:39:34;99583.13;;;31.93;51.34
8069;BME280;4077;43.702;24.896;2023-08-17T10:42:02;99588.72;;;32.01;52.01
8069;BME280;4077;43.702;24.896;2023-08-17T10:44:47;99591.41;;;32.01;50.15
8069;BME280;4077;43.702;24.896;2023-08-17T10:47:31;99573.41;;;31.92;50.90
8069;BME280;4077;43.702;24.896;2023-08-17T10:50:04;99576.34;;;32.00;50.21
8069;BME280;4077;43.702;24.896;2023-08-17T10:52:35;99555.25;;;32.08;50.06
8069;BME280;4077;43.702;24.896;2023-08-17T10:55:04;99559.41;;;32.12;49.84
8069;BME280;4077;43.702;24.896;2023-08-17T10:57:35;99566.13;;;31.94;49.86
8069;BME280;4077;43.702;24.896;2023-08-17T11:00:21;99556.59;;;32.14;50.43
8069;BME280;4077;43.702;24.896;2023-08-17T11:03:05;99565.00;;;32.32;49.73
8069;BME280;4077;43.702;24.896;2023-08-17T11:05:50;99546.41;;;32.30;49.07
8069;BME280;4077;43.702;24.896;2023-08-17T11:08:41;99560.22;;;32.48;49.43
8069;BME280;4077;43.702;24.896;2023-08-17T11:11:16;99553.50;;;32.43;49.73
8069;BME280;4077;43.702;24.896;2023-08-17T11:13:43;99551.81;;;32.53;49.71
8069;BME280;4077;43.702;24.896;2023-08-17T11:16:11;99556.31;;;32.52;48.86
8069;BME280;4077;43.702;24.896;2023-08-17T11:18:37;99556.31;;;32.52;48.58
8069;BME280;4077;43.702;24.896;2023-08-17T11:21:04;99542.84;;;32.54;47.62
8069;BME280;4077;43.702;24.896;2023-08-17T11:23:30;99546.13;;;32.69;48.02
8069;BME280;4077;43.702;24.896;2023-08-17T11:25:57;99549.03;;;32.77;47.03
8069;BME280;4077;43.702;24.896;2023-08-17T11:28:23;99543.69;;;32.77;46.84
8069;BME280;4077;43.702;24.896;2023-08-17T11:30:59;99529.59;;;32.75;46.65
8069;BME280;4077;43.702;24.896;2023-08-17T11:33:29;99540.28;;;32.97;46.03
8069;BME280;4077;43.702;24.896;2023-08-17T11:35:56;99536.63;;;32.98;45.96
8069;BME280;4077;43.702;24.896;2023-08-17T11:38:22;99539.56;;;32.95;46.15
8069;BME280;4077;43.702;24.896;2023-08-17T11:40:49;99539.53;;;32.84;45.69
8069;BME280;4077;43.702;24.896;2023-08-17T11:43:15;99534.69;;;32.66;45.79
8069;BME280;4077;43.702;24.896;2023-08-17T11:45:41;99512.81;;;32.39;45.87
8069;BME280;4077;43.702;24.896;2023-08-17T11:48:07;99526.44;;;32.47;45.49
8069;BME280;4077;43.702;24.896;2023-08-17T11:50:34;99528.25;;;32.58;45.60
8069;BME280;4077;43.702;24.896;2023-08-17T11:53:00;99523.75;;;32.58;45.53
8069;BME280;4077;43.702;24.896;2023-08-17T11:55:26;99521.09;;;32.70;45.07
8069;BME280;4077;43.702;24.896;2023-08-17T11:57:52;99523.63;;;32.49;45.24
8069;BME280;4077;43.702;24.896;2023-08-17T12:00:19;99535.41;;;32.46;45.28
8069;BME280;4077;43.702;24.896;2023-08-17T12:02:50;99531.47;;;32.28;45.11
8069;BME280;4077;43.702;24.896;2023-08-17T12:05:20;99514.44;;;32.18;45.52
8069;BME280;4077;43.702;24.896;2023-08-17T12:07:47;99510.09;;;32.05;46.12
8069;BME280;4077;43.702;24.896;2023-08-17T12:10:12;99510.31;;;32.02;46.22
8069;BME280;4077;43.702;24.896;2023-08-17T12:12:38;99517.34;;;31.92;45.69
8069;BME280;4077;43.702;24.896;2023-08-17T12:15:04;99502.25;;;31.80;45.77
8069;BME280;4077;43.702;24.896;2023-08-17T12:17:30;99492.72;;;31.76;45.96
8069;BME280;4077;43.702;24.896;2023-08-17T12:19:56;99498.25;;;31.85;45.74
8069;BME280;4077;43.702;24.896;2023-08-17T12:22:23;99495.97;;;32.03;44.85
8069;BME280;4077;43.702;24.896;2023-08-17T12:24:49;99500.97;;;32.08;45.17
8069;BME280;4077;43.702;24.896;2023-08-17T12:27:15;99498.91;;;32.11;44.62
8069;BME280;4077;43.702;24.896;2023-08-17T12:29:50;99491.59;;;32.02;43.96
8069;BME280;4077;43.702;24.896;2023-08-17T12:32:17;99495.50;;;32.09;44.39
8069;BME280;4077;43.702;24.896;2023-08-17T12:34:43;99469.75;;;31.97;44.40
8069;BME280;4077;43.702;24.896;2023-08-17T12:37:09;99495.50;;;32.09;44.13
8069;BME280;4077;43.702;24.896;2023-08-17T12:39:36;99472.06;;;32.02;44.07
8069;BME280;4077;43.702;24.896;2023-08-17T12:42:02;99474.97;;;31.88;44.01
8069;BME280;4077;43.702;24.896;2023-08-17T12:44:28;99494.25;;;31.80;44.19
8069;BME280;4077;43.702;24.896;2023-08-17T12:46:53;99473.78;;;31.68;42.89
8069;BME280;4077;43.702;24.896;2023-08-17T12:49:47;99471.09;;;31.68;43.22
8069;BME280;4077;43.702;24.896;2023-08-17T12:52:15;99483.03;;;31.75;43.24
8069;BME280;4077;43.702;24.896;2023-08-17T12:54:41;99473.44;;;31.72;42.70
8069;BME280;4077;43.702;24.896;2023-08-17T12:57:07;99468.81;;;31.74;42.85
8069;BME280;4077;43.702;24.896;2023-08-17T12:59:33;99472.22;;;31.76;43.12
8069;BME280;4077;43.702;24.896;2023-08-17T13:02:00;99474.69;;;31.79;42.19
8069;BME280;4077;43.702;24.896;2023-08-17T13:04:25;99478.22;;;31.91;42.88
8069;BME280;4077;43.702;24.896;2023-08-17T13:06:51;99471.69;;;31.95;42.97
8069;BME280;4077;43.702;24.896;2023-08-17T13:09:17;99476.31;;;32.04;42.03
8069;BME280;4077;43.702;24.896;2023-08-17T13:11:44;99473.75;;;31.92;41.04
8069;BME280;4077;43.702;24.896;2023-08-17T13:14:09;99476.06;;;31.85;41.78